Accueil
METAR-TAF:

METAR-TAF

Aéroports :

Aéroport de Milan-Linate

Milan, Italie

latitude: 45-26N, longitude: 009-17E, altitude: 107 m

Observation

Le bulletin a été fait il y a 11 minutes, à 00:20 UTC
Vent 2 kt de direction variable
Température 23°C
Humidité 73%
Pression 1018 hPa
Visibilité 10 km ou plus
pas de nuages en-dessous de 1500 mètres et pas de cumulonimbus.

METAR: LIML 210020Z VRB02KT CAVOK 23/18 Q1018 NOSIG

Heure: 02:31 (00:31 UTC)

Prévision

Le bulletin a été fait il y a 1 heure et 31 minutes, à 23:00 UTC
Prévision valable du 21 à 00 UTC au 21 à 24 UTC
Vent 57 kt de sud/sud-est
Visibilité 10 km ou plus
Nuages épars à une hauteur de 5000 ft

TAF: LIML 202300Z 2100/2124 15057KT 9999 SCT050

Observations et prévisions météorologiques de plus de 4000 aéroports (messages METAR et TAF).

Les stations disponibles sont représentées par des disques jaunes et rouges sur la carte.

Passer la souris dessus pour voir le nom de la station.

Cliquer dessus pour voir les observations et prévisions météorologiques.

Pour changer de carte: cliquez sur les boutons verts avec une croix noire pour zoomer, sur le bouton vert avec un tiret pour effectuer un zoom arrière, ou sur les flèches vertes pour les cartes adjacentes.


METAR-TAF: